Estación Meteorológica Peña el Pijo (Robertgarden) [ 10/21/17 19:45:13 CEST ]

Fecha Hora Presion(HPa) Temp (°C) Humedad % Rocio (°C) Viento ( m/s) Direccion Lluvia 1Hora(mm) Lluvia 24H(mm) LLuvia Total(mm)
2017-Jun-05 01:01:46 1009.000 11.9 81 8.8       12.43 1427.09
2017-Jun-05 02:01:38 1008.700 10.9 83 8.1       12.43 1427.09
2017-Jun-05 03:01:35 1008.700 10.4 84 7.8       12.43 1427.09
2017-Jun-05 04:01:35 1008.400 10.1 85 7.6       12.43 1427.09
2017-Jun-05 05:01:37 1008.200 9.1 86 6.9       12.43 1427.09
2017-Jun-05 06:01:33 1008.400 8.8 86 6.6       12.43 1427.09
2017-Jun-05 07:01:48 1009.000 8.2 86 6.0       12.43 1427.09
2017-Jun-05 08:01:47 1009.100 10.9 89 9.1       12.43 1427.09
2017-Jun-05 09:01:50 1009.300 15.4 84 12.7       12.43 1427.09
2017-Jun-05 10:01:46 1009.500 18.0 62 10.6       12.43 1427.09
2017-Jun-05 11:01:51 1009.500 19.9 48 8.5       12.43 1427.09
2017-Jun-05 12:01:53 1009.700 22.8 41 8.8       12.43 1427.09
2017-Jun-05 13:01:55 1009.700 24.1 36 8.0       10.87 1427.09
2017-Jun-05 14:01:43 1009.400 24.6 34 7.6 1.1 S   0.51 1427.09
2017-Jun-05 15:01:50 1008.700 25.4 32 7.5       0.51 1427.09
2017-Jun-05 16:01:38 1008.400 27.2 27 6.4       0.51 1427.09
2017-Jun-05 17:01:33 1008.000 27.8 27 6.3       0.51 1427.09
2017-Jun-05 18:01:20 1008.100 27.5 24 5.0       0.51 1427.09
2017-Jun-05 19:01:22 1007.800 26.3 26 5.0       0.51 1427.09
2017-Jun-05 20:01:41 1007.700 24.3 27 3.9       0.51 1427.09
2017-Jun-05 21:00:30 1007.800 19.6 36 4.0       0.51 1427.09
2017-Jun-05 22:01:32 1008.400 15.4 54 6.1         1427.09
2017-Jun-05 23:01:56 1008.900 13.4 63 6.5         1427.09

Temperatura Máxima:27°    Temperatura Mínima:
Presión Máxima:1009.700 Hpa    Presión Mínima:1007.700 Hpa


Volver